Detall de PIREP

Printer-friendly versionPDF version

[2009/01/06 20:48:00]
Flight IATA:CT3128
Pilot Number:011
Company ICAO:CAT
Aircraft Type:B738/F
PAX:160
Departing Airport: LEVC
Destination Airport: LEZG
Alternate Airport:LEMD
Online: VATSIM
Route:TATOS A34 MLA
Flight Level:FL200
No Slew and time accel
No pause
Crash detect
Detect pilot in Cockpit between each 30 and 45 minutes
20:48 Zero fuel Weight: 137300 Lbs, Fuel Weight: 10939 Lbs
20:48 VATSIM:LEVC 062030Z 35009KT 320V030 9999 FEW030 08/M04 Q1011 NOSIG
20:48 VATSIM:LEZG 062030Z 31018KT 9999 FEW035 01/M03 Q1012
20:48 Parking Brakes off
20:59 Take-off
20:59 Take off Weight: 147495 Lbs
20:59 Wind: 341 @ 009 Knots Heading: 296
20:59 POS N39 29 20 W000 28 51
20:59 Gear Up: 176 Knots
20:59 Flaps:4 at 177 Knots
20:59 Flaps:3 at 241 Knots
21:00 Flaps:2 at 245 Knots
21:00 Flaps:1 at 245 Knots
21:00 Flaps:0 at 245 Knots
21:11 TOC
21:11 Fuel Weight: 7801
Lb
21:14 Wind:323@024 Knots Heading: 014 Ground Speed: 401 Knots Altitude 19944 ft
21:18 TOD
21:18 Fuel Weight: 6989 Lb
21:28 Flaps:1 at 236 Knots
21:28 Flaps:2 at 236 Knots
21:28 Flaps:3 at 232 Knots
21:28 Flaps:4 at 229 Knots
21:29 Wind:313@018 Knots Heading: 306 Ground Speed: 189 Knots Altitude 2667 ft
21:29 Flaps:5 at 204 Knots
21:29 Flaps:6 at 186 Knots
21:29 Gear Down: 185 Knots
21:30 Flaps:7 at 168 Knots
21:30 Flaps:8 at 155 Knots
21:31 TouchDown:Rate -202 ft/min Speed: 129 Knots
21:31 VATSIM:LEZG 062030Z 31018KT 9999 FEW035 01/M03 Q1012
21:31 Land
21:31 Wind:313@018 Knots
21:31 Heading: 301
21:31 Flight Duration: 00:32
21:31 Landing Weight: 143681 Lbs
21:31 POS N41 39 36 W001 01 09
21:36 Parking brakes on
21:36 Block to Block Duration: 00:48
21:36 Final Fuel: 5994 Lbls
21:36 Spent Fuel: 4944 Lbls
21:36 Flight Length: 170 NM
2
1:36 TOD Land Length: 61 NM

Exportar CSV

Powered by Drupal - Modified by Danger4k